Decoded Metar for PATO (PORTAGE GLACIER in AK, USA) (IATA:POR) | Meteo·Mobile Aviation Weather
aviador You're here:

PATO Decoded Metar

PORTAGE GLACIER in AK, USA
Report Time2018-08-16 00:32:00
UTC Time2018-08-16 00:46:19
Flight Rules mvfr MVFR
WindVRB at 06 kt
Visibility8047 m
Phenomena:Mist
Clouds:Scattered 028 Hf
Overcast 037 Hf
Expected CloudBase > 800 ft AGL from Temp-Dew spread
Ceiling3,700 ft
Temp11°C (ISA -4)
Dew Point09°C (88% RH)
AAT8.6°C
QNH1015 hPa
Density Alt-262 ft
Elevation102 ft
Report Wrong Elevation
Raw Report
PATO 160032Z AUTO VRB06KT 5SM BR SCT028 OVC037 11/09 A2998 RMK AO2
T01110094 TSNO=

Extra information for PATO:More info

Metar Taf Metar & Taf Last 4 Metars F.Rules Stats Wind Profile Meteogram Temp Stats Airport Information Weather charts Add Link Nearby VenuesMetar ALERT Operation Metar Decoded Social comments

AIRNAV info for PATO